Pine Grove, California
Current Conditions -  °F | °C
As of 3:35 AM on Thursday 27 Nov 2014 (Local Time) from KPVF Reporting Station
Clear Clear  
Wind Chill: 57°   Ceiling: Unl
Heat Index: 57°   Visibility: 10mi
Dew Point: 30°   Wind: 3mph
Humidity: 36%   Direction: 340°NNW
Pressure: 30.25"   Gusts: NA
Location:  38.41°N, 120.66°W
Report Text: KPVF 271135Z AUTO 34003KT 10SM CLR 14/M01 A3025 RMK AO1
Loading
Personal Weather Stations






























Interactive Weather Map New forecast layout! Learn more

10-Day Weather Forecast

Advertisements
Track Severe Weather on mobile